createdAt,value
2018-03-03T00:01:21.178Z,122.15
2018-03-03T00:03:49.508Z,131.07
2018-03-03T00:06:17.902Z,143.20
2018-03-03T00:08:46.271Z,129.25
2018-03-03T00:11:14.593Z,117.15
2018-03-03T00:13:42.946Z,123.38
2018-03-03T00:16:11.260Z,130.35
2018-03-03T00:18:39.621Z,123.25
2018-03-03T00:21:08.019Z,142.23
2018-03-03T00:23:36.349Z,169.43
2018-03-03T00:26:04.682Z,167.77
2018-03-03T00:28:33.002Z,161.40
2018-03-03T00:31:01.292Z,164.57
2018-03-03T00:33:29.645Z,171.82
2018-03-03T00:35:57.986Z,142.60
2018-03-03T00:38:26.313Z,161.00
2018-03-03T00:40:54.634Z,153.43
2018-03-03T00:43:22.962Z,189.35
2018-03-03T00:45:51.300Z,175.07
2018-03-03T00:48:19.642Z,175.75
2018-03-03T00:50:47.969Z,180.23
2018-03-03T00:53:16.297Z,169.75
2018-03-03T00:55:44.623Z,178.90
2018-03-03T00:58:12.954Z,170.12
2018-03-03T01:00:41.282Z,182.80
2018-03-03T01:03:09.614Z,159.32
2018-03-03T01:05:37.914Z,170.50
2018-03-03T01:08:06.386Z,161.15
2018-03-03T01:10:34.747Z,166.00
2018-03-03T01:13:03.070Z,169.25
2018-03-03T01:15:31.451Z,162.05
2018-03-03T01:17:59.787Z,161.55
2018-03-03T01:20:28.105Z,170.05
2018-03-03T01:22:56.457Z,159.25
2018-03-03T01:25:24.782Z,144.07
2018-03-03T01:27:53.241Z,160.30
2018-03-03T01:30:21.582Z,149.15
2018-03-03T01:32:49.914Z,147.13
2018-03-03T01:35:18.257Z,146.77
2018-03-03T01:37:46.568Z,151.65
2018-03-03T01:40:14.893Z,179.00
2018-03-03T01:42:43.203Z,159.65
2018-03-03T01:45:11.505Z,145.52
2018-03-03T01:47:39.848Z,133.70
2018-03-03T01:50:08.187Z,147.32
2018-03-03T01:52:36.502Z,151.87
2018-03-03T01:55:04.837Z,144.57
2018-03-03T01:57:33.173Z,138.73
2018-03-03T02:00:01.500Z,119.72
2018-03-03T02:02:29.823Z,125.35
2018-03-03T02:04:58.139Z,135.40
2018-03-03T02:07:26.490Z,121.65
2018-03-03T02:09:54.810Z,119.07
2018-03-03T02:12:23.211Z,114.45
2018-03-03T02:14:51.539Z,113.35
2018-03-03T02:17:19.933Z,127.50
2018-03-03T02:19:48.257Z,131.25
2018-03-03T02:22:16.566Z,132.35
2018-03-03T02:24:44.898Z,124.05
2018-03-03T02:27:13.253Z,122.18
2018-03-03T02:29:41.586Z,118.43
2018-03-03T02:32:09.936Z,120.53
2018-03-03T02:34:38.267Z,136.88
2018-03-03T02:37:06.577Z,103.35
2018-03-03T02:39:34.951Z,105.05
2018-03-03T02:42:03.290Z,117.50
2018-03-03T02:44:31.630Z,110.88
2018-03-03T02:46:59.980Z,113.32
2018-03-03T02:49:28.303Z,116.90
2018-03-03T02:51:56.643Z,89.05
2018-03-03T02:54:24.964Z,89.30
2018-03-03T02:56:53.327Z,96.22
2018-03-03T02:59:21.640Z,95.60
2018-03-03T03:01:49.948Z,99.25
2018-03-03T03:04:18.263Z,111.32
2018-03-03T03:06:46.619Z,116.30
2018-03-03T03:09:14.947Z,121.40
2018-03-03T03:11:43.297Z,99.32
2018-03-03T03:14:11.590Z,98.47
2018-03-03T03:16:39.946Z,116.97
2018-03-03T03:19:08.250Z,120.70
2018-03-03T03:21:36.703Z,125.75
2018-03-03T03:24:05.061Z,122.95
2018-03-03T03:26:33.923Z,123.03
2018-03-03T03:29:02.275Z,120.57
2018-03-03T03:31:30.585Z,108.40
2018-03-03T03:33:58.912Z,136.52
2018-03-03T03:36:27.230Z,119.70
2018-03-03T03:38:55.630Z,126.40
2018-03-03T03:41:23.995Z,140.60
2018-03-03T03:43:52.342Z,127.30
2018-03-03T03:46:20.695Z,121.90
2018-03-03T03:48:49.023Z,123.78
2018-03-03T03:51:17.373Z,125.87
2018-03-03T03:53:45.750Z,110.22
2018-03-03T03:56:14.071Z,127.35
2018-03-03T03:58:42.376Z,116.40
2018-03-03T04:01:10.687Z,134.00
2018-03-03T04:03:38.999Z,130.95
2018-03-03T04:06:07.320Z,128.52
2018-03-03T04:08:35.671Z,118.80
2018-03-03T04:11:03.989Z,141.05
2018-03-03T04:13:32.312Z,118.57
2018-03-03T04:16:00.659Z,136.70
2018-03-03T04:18:28.998Z,119.47
2018-03-03T04:20:57.315Z,119.07
2018-03-03T04:23:25.647Z,116.18
2018-03-03T04:25:54.010Z,126.32
2018-03-03T04:28:22.377Z,121.65
2018-03-03T04:30:50.750Z,126.05
2018-03-03T04:33:19.127Z,149.80
2018-03-03T04:35:47.484Z,131.93
2018-03-03T04:38:15.854Z,152.65
2018-03-03T04:40:44.163Z,152.87
2018-03-03T04:43:12.487Z,142.48
2018-03-03T04:45:40.801Z,158.73
2018-03-03T04:48:09.178Z,144.98
2018-03-03T04:50:37.563Z,157.80
2018-03-03T04:53:05.913Z,153.05
2018-03-03T04:55:34.302Z,154.50
2018-03-03T04:58:02.714Z,151.73
2018-03-03T05:17:25.289Z,155.98
2018-03-03T05:20:13.588Z,153.75
2018-03-03T05:22:47.010Z,135.57
2018-03-03T05:25:21.289Z,159.32
2018-03-03T05:31:08.250Z,115.22
2018-03-03T05:47:19.215Z,133.02
2018-03-03T05:49:53.440Z,129.25
2018-03-03T05:52:38.671Z,141.35
2018-03-03T06:08:46.274Z,128.87
2018-03-03T06:11:14.634Z,115.28
2018-03-03T06:13:43.002Z,115.78
2018-03-03T06:16:11.352Z,116.75
2018-03-03T06:18:39.701Z,136.98
2018-03-03T06:21:08.065Z,132.35
2018-03-03T06:23:36.406Z,123.65
2018-03-03T06:26:04.724Z,132.90
2018-03-03T06:28:33.033Z,116.18
2018-03-03T06:31:01.362Z,114.57
2018-03-03T06:33:29.765Z,114.62
2018-03-03T06:35:58.096Z,114.03
2018-03-03T06:38:26.395Z,99.82
2018-03-03T06:40:54.716Z,101.07
2018-03-03T06:43:23.082Z,101.15
2018-03-03T06:45:51.434Z,100.47
2018-03-03T06:48:19.741Z,105.55
2018-03-03T06:50:48.087Z,111.95
2018-03-03T06:53:16.417Z,110.82
2018-03-03T06:55:44.753Z,102.65
2018-03-03T06:58:14.003Z,90.40
2018-03-03T07:00:42.368Z,100.75
2018-03-03T07:03:10.773Z,102.20
2018-03-03T07:05:39.072Z,96.87
2018-03-03T07:08:07.447Z,99.28
2018-03-03T07:10:35.779Z,90.57
2018-03-03T07:13:04.151Z,103.85
2018-03-03T07:15:33.448Z,89.90
2018-03-03T07:18:01.867Z,80.18
2018-03-03T07:20:30.247Z,102.80
2018-03-03T07:22:58.626Z,87.97
2018-03-03T07:25:26.942Z,95.60
2018-03-03T07:27:55.281Z,88.90
2018-03-03T07:30:23.590Z,97.15
2018-03-03T07:32:51.922Z,94.80
2018-03-03T07:35:20.269Z,105.80
2018-03-03T07:37:48.622Z,108.72
2018-03-03T07:40:16.944Z,105.70
2018-03-03T07:42:45.264Z,106.00
2018-03-03T07:45:13.604Z,109.50
2018-03-03T07:47:41.991Z,99.45
2018-03-03T07:50:10.374Z,105.15
2018-03-03T07:52:38.727Z,90.95
2018-03-03T07:55:07.101Z,100.32
2018-03-03T07:57:35.461Z,85.03
2018-03-03T08:00:03.797Z,97.45
2018-03-03T08:02:32.293Z,91.78
2018-03-03T08:05:00.679Z,96.25
2018-03-03T08:07:29.032Z,92.50
2018-03-03T08:09:57.459Z,91.32
2018-03-03T08:12:26.095Z,92.88
2018-03-03T08:14:54.451Z,99.07
2018-03-03T08:17:22.845Z,83.47
2018-03-03T08:19:51.201Z,90.53
2018-03-03T08:22:19.722Z,99.03
2018-03-03T08:24:48.233Z,93.97
2018-03-03T08:27:16.634Z,91.15
2018-03-03T08:29:44.967Z,96.82
2018-03-03T08:32:13.470Z,85.18
2018-03-03T08:34:41.793Z,83.25
2018-03-03T08:37:10.196Z,76.57
2018-03-03T08:39:38.597Z,89.65
2018-03-03T08:42:06.930Z,83.90
2018-03-03T08:44:35.262Z,92.30
2018-03-03T08:47:03.595Z,78.50
2018-03-03T08:49:32.060Z,89.40
2018-03-03T08:52:00.390Z,78.82
2018-03-03T08:54:28.710Z,78.65
2018-03-03T08:56:57.027Z,79.32
2018-03-03T08:59:25.371Z,84.43
2018-03-03T09:01:53.790Z,84.20
2018-03-03T09:04:22.148Z,81.80
2018-03-03T09:06:50.496Z,73.30
2018-03-03T09:09:18.898Z,78.03
2018-03-03T09:11:47.229Z,78.28
2018-03-03T09:14:15.605Z,78.47
2018-03-03T09:16:43.947Z,77.50
2018-03-03T09:19:12.304Z,85.70
2018-03-03T09:21:40.644Z,79.37
2018-03-03T09:24:08.974Z,71.18
2018-03-03T09:26:37.322Z,91.57
2018-03-03T09:29:05.665Z,75.22
2018-03-03T09:31:33.984Z,83.37
2018-03-03T09:34:02.389Z,79.18
2018-03-03T09:36:30.774Z,75.45
2018-03-03T09:38:59.224Z,74.40
2018-03-03T09:41:27.604Z,78.12
2018-03-03T09:43:56.051Z,72.57
2018-03-03T09:46:24.435Z,71.25
2018-03-03T09:48:52.758Z,77.10
2018-03-03T09:51:21.107Z,91.82
2018-03-03T09:53:49.454Z,75.68
2018-03-03T09:56:17.797Z,79.03
2018-03-03T09:58:46.163Z,83.97
2018-03-03T10:01:14.576Z,70.15
2018-03-03T10:03:42.945Z,82.40
2018-03-03T10:06:11.324Z,72.95
2018-03-03T10:08:39.658Z,79.15
2018-03-03T10:11:08.122Z,79.95
2018-03-03T10:13:36.547Z,85.07
2018-03-03T10:16:04.919Z,76.12
2018-03-03T10:18:33.360Z,80.32
2018-03-03T10:21:01.783Z,77.78
2018-03-03T10:23:30.162Z,78.30
2018-03-03T10:25:58.543Z,86.90
2018-03-03T10:28:26.926Z,79.50
2018-03-03T10:30:55.325Z,87.95
2018-03-03T10:33:24.316Z,87.10
2018-03-03T10:35:52.645Z,81.45
2018-03-03T10:38:21.080Z,84.30
2018-03-03T10:40:49.414Z,83.95
2018-03-03T10:43:17.747Z,92.95
2018-03-03T10:45:46.107Z,83.53
2018-03-03T10:48:14.429Z,85.47
2018-03-03T10:50:42.835Z,78.40
2018-03-03T10:53:11.366Z,83.28
2018-03-03T10:55:39.730Z,75.25
2018-03-03T10:58:08.107Z,79.22
2018-03-03T11:00:36.556Z,80.85
2018-03-03T11:03:04.953Z,84.60
2018-03-03T11:05:33.455Z,85.70
2018-03-03T11:08:02.186Z,82.65
2018-03-03T11:10:30.553Z,78.82
2018-03-03T11:12:58.932Z,77.20
2018-03-03T11:15:27.312Z,72.90
2018-03-03T11:17:55.697Z,76.82
2018-03-03T11:20:24.043Z,74.00
2018-03-03T11:22:52.406Z,80.60
2018-03-03T11:25:20.797Z,79.70
2018-03-03T11:27:49.141Z,79.10
2018-03-03T11:30:17.522Z,80.87
2018-03-03T11:32:45.872Z,78.07
2018-03-03T11:35:14.230Z,75.50
2018-03-03T11:37:42.611Z,81.77
2018-03-03T11:40:11.059Z,82.55
2018-03-03T11:42:39.567Z,75.35
2018-03-03T11:45:07.917Z,80.62
2018-03-03T11:47:36.266Z,77.50
2018-03-03T11:50:04.625Z,86.40
2018-03-03T11:52:33.076Z,76.62
2018-03-03T11:55:01.544Z,79.60
2018-03-03T11:57:29.914Z,80.10
2018-03-03T11:59:58.259Z,74.45
2018-03-03T12:02:26.662Z,82.45
2018-03-03T12:04:55.015Z,103.45
2018-03-03T12:07:23.373Z,76.57
2018-03-03T12:09:51.711Z,72.10
2018-03-03T12:12:20.071Z,87.32
2018-03-03T12:14:48.432Z,74.72
2018-03-03T12:17:16.818Z,71.82
2018-03-03T12:19:45.225Z,78.10
2018-03-03T12:22:13.576Z,71.30
2018-03-03T12:24:41.994Z,75.93
2018-03-03T12:27:10.411Z,76.70
2018-03-03T12:29:38.723Z,75.65
2018-03-03T12:32:07.123Z,74.05
2018-03-03T12:34:35.509Z,76.80
2018-03-03T12:37:03.850Z,76.05
2018-03-03T12:39:32.246Z,75.45
2018-03-03T12:42:00.581Z,79.05
2018-03-03T12:44:28.948Z,77.87
2018-03-03T12:46:57.319Z,77.35
2018-03-03T12:49:25.651Z,77.80
2018-03-03T12:51:53.975Z,75.93
2018-03-03T12:54:22.356Z,74.57
2018-03-03T12:56:50.769Z,82.68
2018-03-03T12:59:19.229Z,78.97
2018-03-03T13:01:47.526Z,82.85
2018-03-03T13:04:15.880Z,79.15
2018-03-03T13:06:44.318Z,82.07
2018-03-03T13:09:12.644Z,90.57
2018-03-03T13:11:41.035Z,89.60
2018-03-03T13:14:09.413Z,79.87
2018-03-03T13:16:37.779Z,81.55
2018-03-03T13:19:06.958Z,89.78
2018-03-03T13:21:35.346Z,81.47
2018-03-03T13:24:03.754Z,84.20
2018-03-03T13:26:32.125Z,82.22
2018-03-03T13:29:00.436Z,93.45
2018-03-03T13:31:28.796Z,89.53
2018-03-03T13:33:57.141Z,84.57
2018-03-03T13:36:25.481Z,75.72
2018-03-03T13:38:53.826Z,88.72
2018-03-03T13:41:22.202Z,81.18
2018-03-03T13:43:50.583Z,85.20
2018-03-03T13:46:18.931Z,82.60
2018-03-03T13:48:47.298Z,87.07
2018-03-03T13:51:15.667Z,85.30
2018-03-03T13:53:43.982Z,95.75
2018-03-03T13:56:12.368Z,78.90
2018-03-03T13:58:40.816Z,92.00
2018-03-03T14:01:09.175Z,82.25
2018-03-03T14:03:37.602Z,92.68
2018-03-03T14:06:05.965Z,81.18
2018-03-03T14:08:34.331Z,88.57
2018-03-03T14:11:02.706Z,84.13
2018-03-03T14:13:31.048Z,81.47
2018-03-03T14:15:59.433Z,84.82
2018-03-03T14:18:27.873Z,88.35
2018-03-03T14:20:56.273Z,84.78
2018-03-03T14:23:24.658Z,81.90
2018-03-03T14:25:53.100Z,86.78
2018-03-03T14:28:21.599Z,82.00
2018-03-03T14:30:50.200Z,84.70
2018-03-03T14:33:18.568Z,83.90
2018-03-03T14:35:46.914Z,92.45
2018-03-03T14:38:15.266Z,93.97
2018-03-03T14:40:43.648Z,86.37
2018-03-03T14:43:12.071Z,93.35
2018-03-03T14:45:40.395Z,87.55
2018-03-03T14:48:08.765Z,98.93
